sensor_id;sensor_type;location;lat;lon;timestamp;P1;durP1;ratioP1;P2;durP2;ratioP2
63664;SDS011;49820;33.966;73.390;2023-08-01T02:52:24;7.68;;;5.90;;
63664;SDS011;49820;33.966;73.390;2023-08-01T02:54:55;11.63;;;5.80;;
63664;SDS011;49820;33.966;73.390;2023-08-01T02:57:26;9.85;;;6.47;;
63664;SDS011;49820;33.966;73.390;2023-08-01T02:59:55;10.23;;;5.88;;
63664;SDS011;49820;33.966;73.390;2023-08-01T03:02:27;10.38;;;6.43;;
63664;SDS011;49820;33.966;73.390;2023-08-01T03:04:56;9.98;;;6.18;;
63664;SDS011;49820;33.966;73.390;2023-08-01T03:07:27;8.40;;;6.30;;
63664;SDS011;49820;33.966;73.390;2023-08-01T03:09:56;8.23;;;5.68;;
63664;SDS011;49820;33.966;73.390;2023-08-01T03:12:28;7.43;;;6.18;;
63664;SDS011;49820;33.966;73.390;2023-08-01T03:14:57;13.38;;;6.25;;
63664;SDS011;49820;33.966;73.390;2023-08-01T03:17:26;8.60;;;5.07;;
63664;SDS011;49820;33.966;73.390;2023-08-01T03:19:55;8.18;;;4.78;;
63664;SDS011;49820;33.966;73.390;2023-08-01T03:22:24;8.10;;;4.60;;
63664;SDS011;49820;33.966;73.390;2023-08-01T03:24:53;7.85;;;4.55;;
63664;SDS011;49820;33.966;73.390;2023-08-01T03:27:22;6.50;;;4.60;;
63664;SDS011;49820;33.966;73.390;2023-08-01T03:29:52;8.35;;;4.57;;
63664;SDS011;49820;33.966;73.390;2023-08-01T03:32:20;9.48;;;4.35;;
63664;SDS011;49820;33.966;73.390;2023-08-01T03:34:50;6.53;;;4.78;;
63664;SDS011;49820;33.966;73.390;2023-08-01T03:37:19;9.93;;;4.70;;
63664;SDS011;49820;33.966;73.390;2023-08-01T03:39:50;7.55;;;4.88;;
63664;SDS011;49820;33.966;73.390;2023-08-01T03:42:19;8.27;;;4.93;;
63664;SDS011;49820;33.966;73.390;2023-08-01T03:44:48;7.60;;;4.40;;
63664;SDS011;49820;33.966;73.390;2023-08-01T03:47:17;8.43;;;4.65;;
63664;SDS011;49820;33.966;73.390;2023-08-01T03:49:46;7.15;;;4.78;;
63664;SDS011;49820;33.966;73.390;2023-08-01T03:52:15;8.47;;;4.90;;
63664;SDS011;49820;33.966;73.390;2023-08-01T03:54:45;7.93;;;4.70;;
63664;SDS011;49820;33.966;73.390;2023-08-01T03:57:14;8.00;;;4.30;;
63664;SDS011;49820;33.966;73.390;2023-08-01T03:59:43;9.00;;;5.43;;
63664;SDS011;49820;33.966;73.390;2023-08-01T04:02:12;6.82;;;5.30;;
63664;SDS011;49820;33.966;73.390;2023-08-01T04:04:42;10.15;;;5.20;;
63664;SDS011;49820;33.966;73.390;2023-08-01T04:07:11;7.90;;;5.10;;
63664;SDS011;49820;33.966;73.390;2023-08-01T04:09:40;9.38;;;4.53;;
63664;SDS011;49820;33.966;73.390;2023-08-01T04:12:09;8.50;;;4.50;;
63664;SDS011;49820;33.966;73.390;2023-08-01T04:14:38;7.85;;;4.70;;
63664;SDS011;49820;33.966;73.390;2023-08-01T04:17:07;8.38;;;4.63;;
63664;SDS011;49820;33.966;73.390;2023-08-01T04:19:36;10.02;;;5.00;;
63664;SDS011;49820;33.966;73.390;2023-08-01T04:22:05;10.97;;;4.77;;
63664;SDS011;49820;33.966;73.390;2023-08-01T04:24:34;9.17;;;4.43;;
63664;SDS011;49820;33.966;73.390;2023-08-01T04:27:03;7.57;;;4.50;;
63664;SDS011;49820;33.966;73.390;2023-08-01T04:29:32;9.65;;;4.50;;
63664;SDS011;49820;33.966;73.390;2023-08-01T04:32:01;9.75;;;4.20;;
63664;SDS011;49820;33.966;73.390;2023-08-01T04:34:30;8.30;;;4.20;;
63664;SDS011;49820;33.966;73.390;2023-08-01T04:36:59;8.07;;;4.17;;
63664;SDS011;49820;33.966;73.390;2023-08-01T04:39:29;8.32;;;4.60;;
63664;SDS011;49820;33.966;73.390;2023-08-01T04:41:59;10.13;;;4.53;;
63664;SDS011;49820;33.966;73.390;2023-08-01T04:44:28;10.18;;;4.80;;
63664;SDS011;49820;33.966;73.390;2023-08-01T04:46:58;10.35;;;5.00;;
63664;SDS011;49820;33.966;73.390;2023-08-01T04:49:27;10.25;;;4.90;;
63664;SDS011;49820;33.966;73.390;2023-08-01T04:51:56;9.32;;;4.55;;
63664;SDS011;49820;33.966;73.390;2023-08-01T04:54:24;8.23;;;4.13;;
63664;SDS011;49820;33.966;73.390;2023-08-01T04:56:54;11.68;;;4.40;;
63664;SDS011;49820;33.966;73.390;2023-08-01T04:59:23;11.75;;;5.05;;
63664;SDS011;49820;33.966;73.390;2023-08-01T05:01:52;11.63;;;4.90;;
63664;SDS011;49820;33.966;73.390;2023-08-01T05:04:22;8.87;;;4.50;;
63664;SDS011;49820;33.966;73.390;2023-08-01T05:06:53;8.65;;;4.47;;
63664;SDS011;49820;33.966;73.390;2023-08-01T05:09:22;8.75;;;4.35;;
63664;SDS011;49820;33.966;73.390;2023-08-01T05:11:51;9.77;;;4.40;;
63664;SDS011;49820;33.966;73.390;2023-08-01T05:14:20;7.32;;;4.22;;
63664;SDS011;49820;33.966;73.390;2023-08-01T05:16:49;7.95;;;4.50;;
63664;SDS011;49820;33.966;73.390;2023-08-01T05:19:18;7.65;;;4.00;;
63664;SDS011;49820;33.966;73.390;2023-08-01T05:21:46;8.15;;;4.50;;
63664;SDS011;49820;33.966;73.390;2023-08-01T05:24:17;8.82;;;4.75;;
63664;SDS011;49820;33.966;73.390;2023-08-01T05:26:45;10.10;;;4.68;;
63664;SDS011;49820;33.966;73.390;2023-08-01T05:29:14;9.70;;;4.50;;
63664;SDS011;49820;33.966;73.390;2023-08-01T05:31:44;10.57;;;4.70;;
63664;SDS011;49820;33.966;73.390;2023-08-01T05:34:12;7.90;;;4.38;;
63664;SDS011;49820;33.966;73.390;2023-08-01T05:36:43;6.72;;;4.32;;
63664;SDS011;49820;33.966;73.390;2023-08-01T05:39:13;6.90;;;4.50;;
63664;SDS011;49820;33.966;73.390;2023-08-01T05:41:42;7.20;;;4.37;;
63664;SDS011;49820;33.966;73.390;2023-08-01T05:44:12;6.93;;;4.30;;
63664;SDS011;49820;33.966;73.390;2023-08-01T05:46:41;9.15;;;4.65;;
63664;SDS011;49820;33.966;73.390;2023-08-01T05:49:10;8.02;;;4.30;;
63664;SDS011;49820;33.966;73.390;2023-08-01T05:51:39;7.67;;;4.50;;
63664;SDS011;49820;33.966;73.390;2023-08-01T05:54:10;11.23;;;4.82;;
63664;SDS011;49820;33.966;73.390;2023-08-01T05:56:39;9.23;;;4.60;;
63664;SDS011;49820;33.966;73.390;2023-08-01T05:59:09;9.38;;;4.65;;
63664;SDS011;49820;33.966;73.390;2023-08-01T06:01:37;7.85;;;4.40;;
63664;SDS011;49820;33.966;73.390;2023-08-01T06:04:07;8.77;;;4.57;;
63664;SDS011;49820;33.966;73.390;2023-08-01T06:06:36;6.63;;;4.60;;
63664;SDS011;49820;33.966;73.390;2023-08-01T06:09:05;8.88;;;4.85;;
63664;SDS011;49820;33.966;73.390;2023-08-01T06:11:34;8.23;;;4.65;;
63664;SDS011;49820;33.966;73.390;2023-08-01T06:14:03;7.65;;;4.38;;
63664;SDS011;49820;33.966;73.390;2023-08-01T06:16:32;9.30;;;4.60;;
63664;SDS011;49820;33.966;73.390;2023-08-01T06:19:02;9.57;;;4.80;;
63664;SDS011;49820;33.966;73.390;2023-08-01T06:21:32;7.05;;;4.75;;
63664;SDS011;49820;33.966;73.390;2023-08-01T06:24:01;12.23;;;4.70;;
63664;SDS011;49820;33.966;73.390;2023-08-01T06:26:31;8.20;;;4.47;;
63664;SDS011;49820;33.966;73.390;2023-08-01T06:29:00;7.15;;;4.72;;
63664;SDS011;49820;33.966;73.390;2023-08-01T06:31:31;9.02;;;4.78;;
63664;SDS011;49820;33.966;73.390;2023-08-01T06:34:00;7.20;;;4.30;;
63664;SDS011;49820;33.966;73.390;2023-08-01T06:36:29;9.52;;;4.60;;
63664;SDS011;49820;33.966;73.390;2023-08-01T06:38:58;7.68;;;4.28;;
63664;SDS011;49820;33.966;73.390;2023-08-01T06:41:27;7.70;;;4.18;;
63664;SDS011;49820;33.966;73.390;2023-08-01T06:43:56;8.10;;;4.38;;
63664;SDS011;49820;33.966;73.390;2023-08-01T06:46:25;9.40;;;4.32;;
63664;SDS011;49820;33.966;73.390;2023-08-01T06:48:56;10.45;;;4.63;;
63664;SDS011;49820;33.966;73.390;2023-08-01T06:51:25;10.60;;;4.82;;
63664;SDS011;49820;33.966;73.390;2023-08-01T06:53:55;8.02;;;4.85;;
63664;SDS011;49820;33.966;73.390;2023-08-01T06:56:26;8.60;;;4.30;;
63664;SDS011;49820;33.966;73.390;2023-08-01T06:59:01;9.20;;;4.20;;
63664;SDS011;49820;33.966;73.390;2023-08-01T07:01:56;8.02;;;3.85;;
63664;SDS011;49820;33.966;73.390;2023-08-01T07:04:24;8.90;;;4.00;;
63664;SDS011;49820;33.966;73.390;2023-08-01T07:06:58;5.07;;;3.70;;
63664;SDS011;49820;33.966;73.390;2023-08-01T07:09:27;8.52;;;4.10;;
63664;SDS011;49820;33.966;73.390;2023-08-01T07:11:56;6.63;;;3.88;;
63664;SDS011;49820;33.966;73.390;2023-08-01T07:14:25;8.25;;;4.50;;
63664;SDS011;49820;33.966;73.390;2023-08-01T07:16:54;8.85;;;3.83;;
63664;SDS011;49820;33.966;73.390;2023-08-01T07:19:24;7.10;;;4.10;;
63664;SDS011;49820;33.966;73.390;2023-08-01T07:21:54;8.05;;;3.85;;
63664;SDS011;49820;33.966;73.390;2023-08-01T07:24:25;8.10;;;4.13;;
63664;SDS011;49820;33.966;73.390;2023-08-01T07:26:55;8.65;;;4.10;;
63664;SDS011;49820;33.966;73.390;2023-08-01T07:29:33;6.90;;;3.85;;
63664;SDS011;49820;33.966;73.390;2023-08-01T07:32:03;8.68;;;3.70;;
63664;SDS011;49820;33.966;73.390;2023-08-01T07:34:32;7.55;;;4.05;;
63664;SDS011;49820;33.966;73.390;2023-08-01T07:37:01;9.63;;;4.17;;
63664;SDS011;49820;33.966;73.390;2023-08-01T07:39:30;8.40;;;4.95;;
63664;SDS011;49820;33.966;73.390;2023-08-01T07:41:59;10.32;;;4.38;;
63664;SDS011;49820;33.966;73.390;2023-08-01T07:44:30;8.35;;;3.92;;
63664;SDS011;49820;33.966;73.390;2023-08-01T07:47:00;7.10;;;4.10;;
63664;SDS011;49820;33.966;73.390;2023-08-01T07:49:30;8.27;;;4.37;;
63664;SDS011;49820;33.966;73.390;2023-08-01T07:51:59;7.63;;;4.35;;
63664;SDS011;49820;33.966;73.390;2023-08-01T07:54:29;8.50;;;4.32;;
63664;SDS011;49820;33.966;73.390;2023-08-01T07:56:58;9.20;;;4.50;;
63664;SDS011;49820;33.966;73.390;2023-08-01T07:59:27;7.68;;;4.53;;
63664;SDS011;49820;33.966;73.390;2023-08-01T08:01:56;10.02;;;4.60;;
63664;SDS011;49820;33.966;73.390;2023-08-01T08:04:27;7.53;;;4.85;;
63664;SDS011;49820;33.966;73.390;2023-08-01T08:06:56;11.85;;;5.07;;
63664;SDS011;49820;33.966;73.390;2023-08-01T08:09:28;6.53;;;4.57;;
63664;SDS011;49820;33.966;73.390;2023-08-01T08:11:57;8.70;;;4.78;;
63664;SDS011;49820;33.966;73.390;2023-08-01T08:14:26;8.07;;;4.53;;
63664;SDS011;49820;33.966;73.390;2023-08-01T08:16:55;9.35;;;4.88;;
63664;SDS011;49820;33.966;73.390;2023-08-01T08:19:24;8.25;;;4.60;;
63664;SDS011;49820;33.966;73.390;2023-08-01T08:21:58;12.20;;;5.10;;
63664;SDS011;49820;33.966;73.390;2023-08-01T08:24:27;7.60;;;4.65;;
63664;SDS011;49820;33.966;73.390;2023-08-01T08:26:56;7.90;;;4.30;;
63664;SDS011;49820;33.966;73.390;2023-08-01T08:29:25;10.13;;;4.90;;
63664;SDS011;49820;33.966;73.390;2023-08-01T08:31:54;8.48;;;4.50;;
63664;SDS011;49820;33.966;73.390;2023-08-01T08:34:24;8.63;;;4.68;;
63664;SDS011;49820;33.966;73.390;2023-08-01T08:36:53;11.73;;;4.75;;
63664;SDS011;49820;33.966;73.390;2023-08-01T08:39:22;9.35;;;4.88;;
63664;SDS011;49820;33.966;73.390;2023-08-01T08:41:51;11.57;;;5.18;;
63664;SDS011;49820;33.966;73.390;2023-08-01T08:44:20;10.70;;;4.70;;
63664;SDS011;49820;33.966;73.390;2023-08-01T08:46:53;10.20;;;5.00;;
63664;SDS011;49820;33.966;73.390;2023-08-01T08:49:22;10.90;;;5.25;;
63664;SDS011;49820;33.966;73.390;2023-08-01T08:51:54;8.47;;;4.97;;
63664;SDS011;49820;33.966;73.390;2023-08-01T08:54:24;9.65;;;5.03;;
63664;SDS011;49820;33.966;73.390;2023-08-01T08:56:53;10.00;;;5.07;;
63664;SDS011;49820;33.966;73.390;2023-08-01T08:59:23;10.27;;;5.07;;
63664;SDS011;49820;33.966;73.390;2023-08-01T09:01:55;8.23;;;4.57;;
63664;SDS011;49820;33.966;73.390;2023-08-01T09:04:24;9.05;;;4.60;;
63664;SDS011;49820;33.966;73.390;2023-08-01T09:06:57;9.77;;;4.95;;
63664;SDS011;49820;33.966;73.390;2023-08-01T09:09:30;10.73;;;5.22;;
63664;SDS011;49820;33.966;73.390;2023-08-01T09:12:01;6.95;;;5.47;;
63664;SDS011;49820;33.966;73.390;2023-08-01T09:14:29;11.07;;;5.03;;
63664;SDS011;49820;33.966;73.390;2023-08-01T09:17:07;7.93;;;4.85;;
63664;SDS011;49820;33.966;73.390;2023-08-01T09:19:38;10.82;;;5.20;;
63664;SDS011;49820;33.966;73.390;2023-08-01T09:22:22;11.80;;;5.60;;
63664;SDS011;49820;33.966;73.390;2023-08-01T09:24:56;9.88;;;5.47;;
63664;SDS011;49820;33.966;73.390;2023-08-01T09:27:32;10.27;;;5.70;;
63664;SDS011;49820;33.966;73.390;2023-08-01T09:30:06;10.77;;;5.85;;
63664;SDS011;49820;33.966;73.390;2023-08-01T09:32:36;9.45;;;5.80;;
63664;SDS011;49820;33.966;73.390;2023-08-01T09:35:05;8.50;;;5.35;;
63664;SDS011;49820;33.966;73.390;2023-08-01T09:37:43;8.68;;;5.45;;
63664;SDS011;49820;33.966;73.390;2023-08-01T09:40:13;8.55;;;5.40;;
63664;SDS011;49820;33.966;73.390;2023-08-01T09:42:47;10.33;;;6.10;;
63664;SDS011;49820;33.966;73.390;2023-08-01T09:45:17;12.18;;;5.90;;
63664;SDS011;49820;33.966;73.390;2023-08-01T09:47:46;10.48;;;5.90;;
63664;SDS011;49820;33.966;73.390;2023-08-01T09:50:20;8.68;;;6.32;;
63664;SDS011;49820;33.966;73.390;2023-08-01T09:52:50;10.18;;;6.28;;
63664;SDS011;49820;33.966;73.390;2023-08-01T09:55:32;13.48;;;6.65;;
63664;SDS011;49820;33.966;73.390;2023-08-01T09:58:02;9.93;;;6.20;;
63664;SDS011;49820;33.966;73.390;2023-08-01T10:00:34;14.00;;;9.00;;
63664;SDS011;49820;33.966;73.390;2023-08-01T10:03:04;12.25;;;7.85;;
63664;SDS011;49820;33.966;73.390;2023-08-01T10:05:34;12.93;;;7.72;;
63664;SDS011;49820;33.966;73.390;2023-08-01T10:08:07;14.55;;;7.60;;
63664;SDS011;49820;33.966;73.390;2023-08-01T10:10:38;13.43;;;8.30;;
63664;SDS011;49820;33.966;73.390;2023-08-01T10:13:13;12.93;;;7.78;;
63664;SDS011;49820;33.966;73.390;2023-08-01T10:15:43;12.07;;;7.63;;
63664;SDS011;49820;33.966;73.390;2023-08-01T10:18:13;10.20;;;7.65;;
63664;SDS011;49820;33.966;73.390;2023-08-01T10:20:43;13.10;;;7.28;;
63664;SDS011;49820;33.966;73.390;2023-08-01T10:26:05;12.25;;;8.15;;
63664;SDS011;49820;33.966;73.390;2023-08-01T10:28:40;12.30;;;8.45;;
63664;SDS011;49820;33.966;73.390;2023-08-01T10:31:11;13.77;;;8.63;;
63664;SDS011;49820;33.966;73.390;2023-08-01T10:34:04;14.50;;;8.65;;
63664;SDS011;49820;33.966;73.390;2023-08-01T10:36:52;13.45;;;9.23;;
63664;SDS011;49820;33.966;73.390;2023-08-01T10:39:41;19.37;;;15.50;;
63664;SDS011;49820;33.966;73.390;2023-08-01T10:42:10;18.00;;;11.90;;
63664;SDS011;49820;33.966;73.390;2023-08-01T10:44:46;15.13;;;9.75;;
63664;SDS011;49820;33.966;73.390;2023-08-01T10:47:24;12.90;;;8.38;;
63664;SDS011;49820;33.966;73.390;2023-08-01T10:49:55;18.13;;;9.95;;
63664;SDS011;49820;33.966;73.390;2023-08-01T10:52:25;15.67;;;10.50;;
63664;SDS011;49820;33.966;73.390;2023-08-01T10:55:04;15.77;;;10.57;;
63664;SDS011;49820;33.966;73.390;2023-08-01T10:57:35;16.17;;;11.18;;
63664;SDS011;49820;33.966;73.390;2023-08-01T11:00:05;20.58;;;13.68;;
63664;SDS011;49820;33.966;73.390;2023-08-01T11:02:38;17.47;;;12.03;;
63664;SDS011;49820;33.966;73.390;2023-08-01T11:05:07;16.10;;;11.25;;
63664;SDS011;49820;33.966;73.390;2023-08-01T11:07:36;20.25;;;13.57;;
63664;SDS011;49820;33.966;73.390;2023-08-01T11:12:42;23.08;;;17.55;;
63664;SDS011;49820;33.966;73.390;2023-08-01T11:15:12;24.30;;;14.85;;
63664;SDS011;49820;33.966;73.390;2023-08-01T11:18:00;20.75;;;14.30;;
63664;SDS011;49820;33.966;73.390;2023-08-01T11:20:30;23.63;;;16.50;;
63664;SDS011;49820;33.966;73.390;2023-08-01T11:22:59;20.65;;;14.75;;
63664;SDS011;49820;33.966;73.390;2023-08-01T11:25:33;20.20;;;13.63;;
63664;SDS011;49820;33.966;73.390;2023-08-01T11:28:08;19.27;;;13.65;;
63664;SDS011;49820;33.966;73.390;2023-08-01T11:30:39;18.60;;;13.60;;
63664;SDS011;49820;33.966;73.390;2023-08-01T11:33:15;18.27;;;13.55;;
63664;SDS011;49820;33.966;73.390;2023-08-01T11:35:52;21.48;;;16.38;;
63664;SDS011;49820;33.966;73.390;2023-08-01T11:38:32;24.73;;;16.08;;
63664;SDS011;49820;33.966;73.390;2023-08-01T11:41:03;20.38;;;15.15;;
63664;SDS011;49820;33.966;73.390;2023-08-01T11:43:42;25.45;;;15.65;;
63664;SDS011;49820;33.966;73.390;2023-08-01T11:46:12;21.02;;;15.07;;
63664;SDS011;49820;33.966;73.390;2023-08-01T11:48:45;21.92;;;14.27;;
63664;SDS011;49820;33.966;73.390;2023-08-01T11:51:15;23.90;;;14.18;;
63664;SDS011;49820;33.966;73.390;2023-08-01T11:53:45;22.23;;;15.88;;
63664;SDS011;49820;33.966;73.390;2023-08-01T11:56:21;19.43;;;15.63;;
63664;SDS011;49820;33.966;73.390;2023-08-01T11:58:52;22.03;;;15.13;;
63664;SDS011;49820;33.966;73.390;2023-08-01T12:01:23;21.17;;;15.07;;
63664;SDS011;49820;33.966;73.390;2023-08-01T12:03:53;22.40;;;15.20;;
63664;SDS011;49820;33.966;73.390;2023-08-01T12:06:24;20.93;;;14.07;;
63664;SDS011;49820;33.966;73.390;2023-08-01T12:08:54;22.17;;;13.90;;
63664;SDS011;49820;33.966;73.390;2023-08-01T12:11:33;21.50;;;15.50;;
63664;SDS011;49820;33.966;73.390;2023-08-01T12:16:40;21.05;;;14.50;;
63664;SDS011;49820;33.966;73.390;2023-08-01T12:19:19;20.85;;;15.10;;
63664;SDS011;49820;33.966;73.390;2023-08-01T12:21:49;19.25;;;14.00;;
63664;SDS011;49820;33.966;73.390;2023-08-01T12:24:18;20.88;;;13.90;;
63664;SDS011;49820;33.966;73.390;2023-08-01T12:26:47;21.88;;;14.10;;
63664;SDS011;49820;33.966;73.390;2023-08-01T12:29:26;21.85;;;15.05;;
63664;SDS011;49820;33.966;73.390;2023-08-01T12:31:55;21.15;;;13.88;;
63664;SDS011;49820;33.966;73.390;2023-08-01T12:34:24;21.85;;;14.25;;
63664;SDS011;49820;33.966;73.390;2023-08-01T12:36:53;22.48;;;15.13;;
63664;SDS011;49820;33.966;73.390;2023-08-01T12:39:22;23.58;;;15.13;;
63664;SDS011;49820;33.966;73.390;2023-08-01T12:41:54;22.63;;;15.35;;
63664;SDS011;49820;33.966;73.390;2023-08-01T12:44:23;25.80;;;16.35;;
63664;SDS011;49820;33.966;73.390;2023-08-01T12:46:53;25.15;;;17.52;;
63664;SDS011;49820;33.966;73.390;2023-08-01T12:49:22;26.70;;;17.27;;
63664;SDS011;49820;33.966;73.390;2023-08-01T12:51:54;25.77;;;16.98;;
63664;SDS011;49820;33.966;73.390;2023-08-01T12:54:25;25.02;;;16.90;;
63664;SDS011;49820;33.966;73.390;2023-08-01T12:56:54;29.88;;;19.77;;
63664;SDS011;49820;33.966;73.390;2023-08-01T12:59:26;74.45;;;42.35;;
63664;SDS011;49820;33.966;73.390;2023-08-01T13:01:55;109.60;;;64.07;;
63664;SDS011;49820;33.966;73.390;2023-08-01T13:04:24;77.03;;;48.78;;
63664;SDS011;49820;33.966;73.390;2023-08-01T13:06:53;40.50;;;29.70;;
63664;SDS011;49820;33.966;73.390;2023-08-01T13:09:23;49.22;;;42.17;;
63664;SDS011;49820;33.966;73.390;2023-08-01T13:11:51;57.40;;;44.03;;
63664;SDS011;49820;33.966;73.390;2023-08-01T13:14:24;51.72;;;35.75;;
63664;SDS011;49820;33.966;73.390;2023-08-01T13:16:53;49.47;;;37.20;;
63664;SDS011;49820;33.966;73.390;2023-08-01T13:19:22;46.28;;;32.70;;
63664;SDS011;49820;33.966;73.390;2023-08-01T13:21:52;58.17;;;39.55;;
63664;SDS011;49820;33.966;73.390;2023-08-01T13:24:20;30.55;;;23.65;;
63664;SDS011;49820;33.966;73.390;2023-08-01T13:26:49;56.60;;;32.90;;
63664;SDS011;49820;33.966;73.390;2023-08-01T13:29:20;74.90;;;40.53;;
63664;SDS011;49820;33.966;73.390;2023-08-01T13:31:48;59.03;;;35.55;;
63664;SDS011;49820;33.966;73.390;2023-08-01T13:34:18;49.80;;;27.75;;
63664;SDS011;49820;33.966;73.390;2023-08-01T13:36:49;34.47;;;21.20;;
63664;SDS011;49820;33.966;73.390;2023-08-01T13:39:17;40.67;;;21.63;;
63664;SDS011;49820;33.966;73.390;2023-08-01T13:41:46;36.25;;;20.70;;
63664;SDS011;49820;33.966;73.390;2023-08-01T13:44:15;43.83;;;23.52;;
63664;SDS011;49820;33.966;73.390;2023-08-01T13:46:44;50.05;;;28.50;;
63664;SDS011;49820;33.966;73.390;2023-08-01T13:49:15;56.40;;;27.58;;
63664;SDS011;49820;33.966;73.390;2023-08-01T13:51:44;46.58;;;26.95;;
63664;SDS011;49820;33.966;73.390;2023-08-01T13:54:13;51.75;;;28.85;;
63664;SDS011;49820;33.966;73.390;2023-08-01T13:56:42;50.47;;;33.90;;
63664;SDS011;49820;33.966;73.390;2023-08-01T13:59:12;47.65;;;34.00;;
63664;SDS011;49820;33.966;73.390;2023-08-01T14:01:41;65.50;;;31.58;;
63664;SDS011;49820;33.966;73.390;2023-08-01T14:04:11;51.80;;;33.85;;
63664;SDS011;49820;33.966;73.390;2023-08-01T14:06:41;56.60;;;28.13;;
63664;SDS011;49820;33.966;73.390;2023-08-01T14:09:11;55.47;;;32.90;;
63664;SDS011;49820;33.966;73.390;2023-08-01T14:11:42;42.10;;;31.08;;
63664;SDS011;49820;33.966;73.390;2023-08-01T14:14:11;41.03;;;29.65;;
63664;SDS011;49820;33.966;73.390;2023-08-01T14:16:43;38.75;;;28.63;;
63664;SDS011;49820;33.966;73.390;2023-08-01T14:19:12;40.43;;;27.50;;
63664;SDS011;49820;33.966;73.390;2023-08-01T14:21:42;47.47;;;31.77;;
63664;SDS011;49820;33.966;73.390;2023-08-01T14:24:11;45.95;;;31.90;;
63664;SDS011;49820;33.966;73.390;2023-08-01T14:26:40;44.75;;;23.52;;
63664;SDS011;49820;33.966;73.390;2023-08-01T14:29:10;43.42;;;22.58;;
63664;SDS011;49820;33.966;73.390;2023-08-01T14:31:39;37.05;;;24.30;;
63664;SDS011;49820;33.966;73.390;2023-08-01T14:34:08;31.27;;;22.90;;
63664;SDS011;49820;33.966;73.390;2023-08-01T14:36:37;33.85;;;23.15;;
63664;SDS011;49820;33.966;73.390;2023-08-01T14:39:09;29.37;;;21.00;;
63664;SDS011;49820;33.966;73.390;2023-08-01T14:41:50;27.40;;;19.48;;
63664;SDS011;49820;33.966;73.390;2023-08-01T14:44:22;25.92;;;21.13;;
63664;SDS011;49820;33.966;73.390;2023-08-01T14:46:51;27.08;;;19.83;;
63664;SDS011;49820;33.966;73.390;2023-08-01T14:49:22;26.80;;;19.80;;
